createdAt,value
2019-03-03T00:01:07.535Z,11.28
2019-03-03T00:03:40.404Z,11.43
2019-03-03T00:06:12.467Z,10.40
2019-03-03T00:08:43.934Z,10.60
2019-03-03T00:11:15.489Z,11.08
2019-03-03T00:13:47.145Z,10.28
2019-03-03T00:16:18.322Z,9.03
2019-03-03T00:18:49.547Z,8.75
2019-03-03T00:21:21.054Z,9.08
2019-03-03T00:23:52.675Z,9.83
2019-03-03T00:26:23.774Z,8.83
2019-03-03T00:28:55.530Z,8.90
2019-03-03T00:31:38.142Z,7.75
2019-03-03T00:34:09.681Z,7.22
2019-03-03T00:36:58.862Z,6.60
2019-03-03T00:39:41.019Z,7.65
2019-03-03T00:42:29.737Z,6.97
2019-03-03T00:45:28.202Z,6.58
2019-03-03T00:48:18.366Z,7.12
2019-03-03T00:51:11.175Z,6.33
2019-03-03T00:53:52.162Z,7.22
2019-03-03T00:56:31.569Z,7.03
2019-03-03T00:59:23.220Z,6.05
2019-03-03T01:01:59.862Z,5.42
2019-03-03T01:05:02.305Z,6.62
2019-03-03T01:07:51.236Z,6.15
2019-03-03T01:10:50.288Z,6.03
2019-03-03T01:13:41.781Z,6.20
2019-03-03T01:16:23.616Z,5.85
2019-03-03T01:19:03.254Z,6.05
2019-03-03T01:21:39.722Z,6.42
2019-03-03T01:24:39.109Z,6.17
2019-03-03T01:27:10.329Z,5.83
2019-03-03T01:29:41.515Z,5.70
2019-03-03T01:32:12.731Z,4.92
2019-03-03T01:34:43.833Z,4.78
2019-03-03T01:37:14.987Z,4.42
2019-03-03T01:39:46.169Z,3.92
2019-03-03T01:42:17.720Z,4.40
2019-03-03T01:44:48.827Z,4.22
2019-03-03T01:47:19.830Z,4.25
2019-03-03T01:49:51.110Z,4.30
2019-03-03T01:52:22.567Z,4.80
2019-03-03T01:54:53.946Z,4.62
2019-03-03T01:57:25.096Z,4.78
2019-03-03T01:59:56.128Z,4.87
2019-03-03T02:02:27.201Z,4.17
2019-03-03T02:04:58.302Z,5.08
2019-03-03T02:07:29.497Z,4.78
2019-03-03T02:10:00.669Z,4.47
2019-03-03T02:12:32.603Z,5.45
2019-03-03T02:15:04.446Z,4.37
2019-03-03T02:17:37.414Z,5.28
2019-03-03T02:20:08.964Z,4.60
2019-03-03T02:22:41.033Z,4.87
2019-03-03T02:25:12.317Z,4.90
2019-03-03T02:27:43.543Z,4.40
2019-03-03T02:30:18.168Z,4.65
2019-03-03T02:32:49.410Z,4.15
2019-03-03T02:35:20.680Z,4.40
2019-03-03T02:37:51.904Z,4.70
2019-03-03T02:40:23.429Z,4.65
2019-03-03T02:42:54.585Z,4.60
2019-03-03T02:45:26.198Z,4.45
2019-03-03T02:47:57.698Z,4.75
2019-03-03T02:50:29.921Z,4.90
2019-03-03T02:53:01.968Z,4.35
2019-03-03T02:55:33.449Z,5.10
2019-03-03T02:58:04.784Z,4.50
2019-03-03T03:00:38.178Z,4.20
2019-03-03T03:03:11.536Z,5.00
2019-03-03T03:06:00.651Z,4.90
2019-03-03T03:08:36.333Z,4.83
2019-03-03T03:11:26.433Z,4.35
2019-03-03T03:14:31.676Z,4.75
2019-03-03T03:17:21.863Z,4.15
2019-03-03T03:20:23.930Z,3.65
2019-03-03T03:23:18.722Z,4.33
2019-03-03T03:26:17.739Z,4.22
2019-03-03T03:29:06.798Z,4.20
2019-03-03T03:32:00.184Z,4.60
2019-03-03T03:34:39.371Z,4.90
2019-03-03T03:37:23.875Z,4.53
2019-03-03T03:40:09.515Z,4.70
2019-03-03T03:42:51.944Z,4.05
2019-03-03T03:45:28.631Z,4.78
2019-03-03T03:48:36.925Z,4.08
2019-03-03T03:51:14.622Z,4.62
2019-03-03T03:53:57.242Z,4.00
2019-03-03T03:56:46.453Z,3.75
2019-03-03T03:59:25.532Z,4.45
2019-03-03T04:02:11.119Z,3.75
2019-03-03T04:05:10.884Z,3.65
2019-03-03T04:08:03.840Z,3.83
2019-03-03T04:11:07.272Z,4.15
2019-03-03T04:14:02.596Z,4.33
2019-03-03T04:16:41.698Z,4.78
2019-03-03T04:19:26.916Z,4.17
2019-03-03T04:22:26.510Z,4.80
2019-03-03T04:25:14.629Z,4.12
2019-03-03T04:27:57.466Z,4.78
2019-03-03T04:30:34.123Z,5.22
2019-03-03T04:33:15.969Z,4.47
2019-03-03T04:36:11.002Z,4.78
2019-03-03T04:39:01.118Z,4.78
2019-03-03T04:41:55.749Z,5.33
2019-03-03T04:44:46.706Z,4.90
2019-03-03T04:47:39.881Z,4.70
2019-03-03T04:50:48.218Z,5.20
2019-03-03T04:53:28.467Z,4.83
2019-03-03T04:56:21.379Z,4.80
2019-03-03T04:59:11.753Z,4.70
2019-03-03T05:01:50.598Z,5.87
2019-03-03T05:04:50.019Z,5.40
2019-03-03T05:07:41.500Z,5.00
2019-03-03T05:10:19.962Z,5.00
2019-03-03T05:13:16.115Z,4.67
2019-03-03T05:16:05.721Z,4.65
2019-03-03T05:19:07.846Z,5.00
2019-03-03T05:21:38.874Z,4.55
2019-03-03T05:24:11.366Z,4.10
2019-03-03T05:26:42.470Z,4.80
2019-03-03T05:29:13.877Z,4.25
2019-03-03T05:31:45.029Z,4.62
2019-03-03T05:34:16.389Z,4.62
2019-03-03T05:36:47.389Z,4.25
2019-03-03T05:39:18.874Z,4.25
2019-03-03T05:41:49.938Z,3.85
2019-03-03T05:44:21.046Z,4.10
2019-03-03T05:46:52.495Z,3.55
2019-03-03T05:49:23.960Z,3.55
2019-03-03T05:51:54.988Z,3.62
2019-03-03T05:54:26.309Z,4.03
2019-03-03T05:56:57.461Z,4.08
2019-03-03T05:59:28.633Z,3.50
2019-03-03T06:02:00.623Z,3.92
2019-03-03T06:04:32.147Z,3.80
2019-03-03T06:07:03.298Z,3.75
2019-03-03T06:09:35.006Z,3.58
2019-03-03T06:12:06.241Z,2.92
2019-03-03T06:14:37.335Z,2.77
2019-03-03T06:17:08.412Z,3.35
2019-03-03T06:19:39.510Z,3.60
2019-03-03T06:22:10.737Z,3.65
2019-03-03T06:24:42.460Z,3.70
2019-03-03T06:27:13.615Z,3.47
2019-03-03T06:29:44.714Z,3.15
2019-03-03T06:32:15.788Z,3.62
2019-03-03T06:34:47.609Z,3.20
2019-03-03T06:37:18.951Z,2.90
2019-03-03T06:39:50.048Z,3.72
2019-03-03T06:42:21.441Z,2.87
2019-03-03T06:44:52.641Z,2.95
2019-03-03T06:47:23.762Z,3.67
2019-03-03T06:49:55.281Z,3.85
2019-03-03T06:52:26.358Z,3.75
2019-03-03T06:54:57.544Z,2.80
2019-03-03T06:57:29.013Z,3.00
2019-03-03T07:00:00.560Z,3.47
2019-03-03T07:02:32.026Z,3.80
2019-03-03T07:05:03.141Z,4.95
2019-03-03T07:07:34.538Z,3.40
2019-03-03T07:10:07.308Z,3.17
2019-03-03T07:12:38.740Z,3.35
2019-03-03T07:15:15.216Z,3.10
2019-03-03T07:17:46.452Z,3.52
2019-03-03T07:20:18.690Z,3.33
2019-03-03T07:22:50.030Z,3.55
2019-03-03T07:25:21.417Z,3.10
2019-03-03T07:27:52.761Z,3.33
2019-03-03T07:30:24.325Z,2.25
2019-03-03T07:33:14.753Z,3.42
2019-03-03T07:35:46.270Z,3.55
2019-03-03T07:38:17.501Z,2.77
2019-03-03T07:40:48.745Z,3.10
2019-03-03T07:43:19.765Z,2.87
2019-03-03T07:45:51.553Z,2.67
2019-03-03T07:48:23.002Z,2.50
2019-03-03T07:50:54.529Z,2.70
2019-03-03T07:53:25.602Z,2.40
2019-03-03T07:55:56.691Z,2.62
2019-03-03T07:58:27.705Z,2.33
2019-03-03T08:00:58.943Z,2.90
2019-03-03T08:03:30.081Z,2.15
2019-03-03T08:06:01.160Z,1.90
2019-03-03T08:08:32.558Z,3.00
2019-03-03T08:11:03.734Z,2.65
2019-03-03T08:13:34.922Z,2.60
2019-03-03T08:16:06.050Z,2.50
2019-03-03T08:18:37.436Z,2.50
2019-03-03T08:21:08.959Z,2.83
2019-03-03T08:23:40.020Z,2.15
2019-03-03T08:26:11.477Z,2.60
2019-03-03T08:28:42.688Z,2.08
2019-03-03T08:31:14.043Z,2.70
2019-03-03T08:33:45.227Z,2.10
2019-03-03T08:36:16.488Z,2.27
2019-03-03T08:38:47.654Z,2.12
2019-03-03T08:41:18.766Z,2.27
2019-03-03T08:44:06.803Z,2.87
2019-03-03T08:46:49.110Z,2.10
2019-03-03T08:49:28.344Z,2.35
2019-03-03T08:52:17.435Z,2.08
2019-03-03T08:55:03.905Z,2.27
2019-03-03T08:57:50.026Z,2.50
2019-03-03T09:00:43.621Z,2.20
2019-03-03T09:03:43.161Z,1.62
2019-03-03T09:06:24.900Z,2.40
2019-03-03T09:09:01.762Z,2.62
2019-03-03T09:11:44.099Z,2.50
2019-03-03T09:14:21.930Z,2.40
2019-03-03T09:17:15.150Z,2.70
2019-03-03T09:20:03.694Z,2.33
2019-03-03T09:22:47.267Z,2.87
2019-03-03T09:25:36.745Z,2.37
2019-03-03T09:28:22.949Z,2.90
2019-03-03T09:31:17.996Z,2.37
2019-03-03T09:34:16.410Z,2.30
2019-03-03T09:37:04.418Z,2.30
2019-03-03T09:39:54.852Z,3.12
2019-03-03T09:42:39.277Z,2.50
2019-03-03T09:45:44.989Z,2.37
2019-03-03T09:48:27.808Z,2.08
2019-03-03T09:51:06.355Z,2.15
2019-03-03T09:53:59.633Z,2.47
2019-03-03T09:56:56.304Z,2.20
2019-03-03T10:00:04.793Z,2.08
2019-03-03T10:02:55.105Z,2.45
2019-03-03T10:05:51.863Z,2.05
2019-03-03T10:08:45.470Z,2.30
2019-03-03T10:11:50.795Z,2.15
2019-03-03T10:14:40.942Z,2.05
2019-03-03T10:17:43.276Z,2.70
2019-03-03T10:20:28.123Z,2.33
2019-03-03T10:23:07.191Z,3.27
2019-03-03T10:25:56.264Z,1.70
2019-03-03T10:28:46.427Z,1.60
2019-03-03T10:31:35.531Z,1.90
2019-03-03T10:34:29.654Z,2.45
2019-03-03T10:37:23.098Z,2.45
2019-03-03T10:40:28.311Z,2.52
2019-03-03T10:43:21.164Z,2.22
2019-03-03T10:46:17.345Z,2.40
2019-03-03T10:49:03.499Z,2.20
2019-03-03T10:51:59.890Z,2.40
2019-03-03T10:54:38.793Z,2.60
2019-03-03T10:57:30.396Z,2.30
2019-03-03T11:00:19.448Z,2.58
2019-03-03T11:03:03.155Z,1.77
2019-03-03T11:05:50.409Z,2.87
2019-03-03T11:08:59.030Z,2.70
2019-03-03T11:11:51.101Z,2.65
2019-03-03T11:14:41.250Z,3.08
2019-03-03T11:17:46.461Z,2.02
2019-03-03T11:20:35.765Z,2.37
2019-03-03T11:23:25.930Z,1.90
2019-03-03T11:26:15.345Z,2.58
2019-03-03T11:28:58.429Z,2.65
2019-03-03T11:31:47.601Z,2.33
2019-03-03T11:34:43.653Z,2.60
2019-03-03T11:37:27.048Z,3.12
2019-03-03T11:40:08.986Z,2.42
2019-03-03T11:43:17.687Z,2.52
2019-03-03T11:45:58.229Z,1.75
2019-03-03T11:48:47.292Z,2.00
2019-03-03T11:51:46.392Z,2.33
2019-03-03T11:54:24.772Z,2.87
2019-03-03T11:57:01.110Z,2.45
2019-03-03T11:59:51.690Z,2.40
2019-03-03T12:02:41.777Z,2.58
2019-03-03T12:05:44.258Z,2.47
2019-03-03T12:08:27.948Z,3.40
2019-03-03T12:11:14.931Z,2.60
2019-03-03T12:14:08.334Z,2.58
2019-03-03T12:16:53.182Z,2.83
2019-03-03T12:19:32.454Z,2.72
2019-03-03T12:22:18.995Z,2.77
2019-03-03T12:25:12.159Z,2.25
2019-03-03T12:27:55.885Z,2.42
2019-03-03T12:30:49.166Z,1.75
2019-03-03T12:33:26.774Z,2.60
2019-03-03T12:36:19.590Z,2.30
2019-03-03T12:39:10.074Z,1.57
2019-03-03T12:41:59.574Z,2.98
2019-03-03T12:44:49.726Z,2.40
2019-03-03T12:47:31.658Z,2.87
2019-03-03T12:50:24.773Z,2.80
2019-03-03T12:53:14.931Z,3.12
2019-03-03T12:55:51.886Z,2.02
2019-03-03T12:58:43.149Z,2.65
2019-03-03T13:01:36.080Z,3.35
2019-03-03T13:04:30.618Z,2.05
2019-03-03T13:07:20.013Z,3.10
2019-03-03T13:10:08.873Z,2.55
2019-03-03T13:12:50.565Z,2.60
2019-03-03T13:15:50.144Z,2.20
2019-03-03T13:18:45.612Z,2.72
2019-03-03T13:21:31.883Z,2.83
2019-03-03T13:24:34.700Z,2.62
2019-03-03T13:27:17.463Z,3.00
2019-03-03T13:30:09.757Z,2.25
2019-03-03T13:32:56.832Z,2.25
2019-03-03T13:35:44.874Z,2.60
2019-03-03T13:38:28.630Z,2.50
2019-03-03T13:41:06.723Z,2.10
2019-03-03T13:43:37.917Z,2.47
2019-03-03T13:46:09.214Z,2.27
2019-03-03T13:48:41.009Z,1.80
2019-03-03T13:51:12.664Z,2.85
2019-03-03T13:53:44.468Z,2.12
2019-03-03T13:56:15.712Z,2.30
2019-03-03T13:58:47.024Z,2.15
2019-03-03T14:01:18.823Z,2.55
2019-03-03T14:03:50.130Z,2.20
2019-03-03T14:06:21.537Z,2.00
2019-03-03T14:08:52.722Z,2.30
2019-03-03T14:11:28.796Z,2.40
2019-03-03T14:14:00.113Z,1.52
2019-03-03T14:16:31.281Z,1.90
2019-03-03T14:19:02.476Z,1.50
2019-03-03T14:21:33.630Z,2.12
2019-03-03T14:24:05.651Z,3.35
2019-03-03T14:26:36.933Z,1.70
2019-03-03T14:29:08.206Z,2.42
2019-03-03T14:31:39.444Z,2.50
2019-03-03T14:34:10.667Z,1.98
2019-03-03T14:36:42.096Z,2.35
2019-03-03T14:39:13.454Z,1.67
2019-03-03T14:41:44.755Z,2.02
2019-03-03T14:44:15.949Z,2.17
2019-03-03T14:46:47.179Z,1.80
2019-03-03T14:49:18.816Z,2.25
2019-03-03T14:51:50.489Z,1.87
2019-03-03T14:54:21.982Z,1.95
2019-03-03T14:56:53.142Z,2.55
2019-03-03T14:59:24.323Z,2.00
2019-03-03T15:01:58.205Z,2.17
2019-03-03T15:04:29.685Z,1.92
2019-03-03T15:07:00.895Z,1.30
2019-03-03T15:09:32.134Z,1.98
2019-03-03T15:12:03.376Z,1.40
2019-03-03T15:14:34.695Z,1.12
2019-03-03T15:17:06.507Z,1.90
2019-03-03T15:19:37.664Z,1.50
2019-03-03T15:22:09.215Z,2.00
2019-03-03T15:24:40.448Z,2.12
2019-03-03T15:27:12.241Z,2.25
2019-03-03T15:29:43.497Z,1.70
2019-03-03T15:32:14.699Z,1.80
2019-03-03T15:34:46.152Z,1.90
2019-03-03T15:37:18.110Z,2.72
2019-03-03T15:39:49.284Z,2.42
2019-03-03T15:42:20.551Z,2.60
2019-03-03T15:44:52.046Z,2.12
2019-03-03T15:47:23.243Z,1.30
2019-03-03T15:49:55.258Z,1.90
2019-03-03T15:52:26.918Z,2.08
2019-03-03T15:54:58.020Z,1.85
2019-03-03T15:57:29.673Z,2.10
2019-03-03T16:00:00.926Z,1.85
2019-03-03T16:02:32.809Z,2.05
2019-03-03T16:05:04.761Z,2.08
2019-03-03T16:07:35.906Z,1.80
2019-03-03T16:10:08.725Z,2.35
2019-03-03T16:12:40.023Z,2.20
2019-03-03T16:15:13.480Z,1.70
2019-03-03T16:17:44.708Z,2.12
2019-03-03T16:20:18.659Z,2.20
2019-03-03T16:22:50.251Z,2.22
2019-03-03T16:25:21.764Z,2.50
2019-03-03T16:27:53.358Z,2.25
2019-03-03T16:30:25.075Z,1.82
2019-03-03T16:32:56.278Z,1.87
2019-03-03T16:35:27.502Z,2.02
2019-03-03T16:37:58.799Z,1.70
2019-03-03T16:40:39.334Z,2.10
2019-03-03T16:43:03.188Z,1.90
2019-03-03T16:45:34.735Z,3.25
2019-03-03T16:48:06.074Z,2.12
2019-03-03T16:50:37.281Z,1.72
2019-03-03T16:53:08.575Z,2.10
2019-03-03T16:55:40.050Z,1.65
2019-03-03T16:58:11.346Z,1.70
2019-03-03T17:00:42.665Z,1.77
2019-03-03T17:03:15.098Z,2.25
2019-03-03T17:05:46.951Z,1.50
2019-03-03T17:08:18.171Z,1.52
2019-03-03T17:10:49.337Z,1.75
2019-03-03T17:13:20.664Z,1.50
2019-03-03T17:15:52.035Z,1.65
2019-03-03T17:18:23.250Z,1.85
2019-03-03T17:20:54.505Z,1.65
2019-03-03T17:23:26.135Z,1.90
2019-03-03T17:25:57.529Z,1.70
2019-03-03T17:28:28.726Z,1.57
2019-03-03T17:30:59.796Z,1.57
2019-03-03T17:33:30.851Z,2.30
2019-03-03T17:36:02.075Z,2.05
2019-03-03T17:38:34.284Z,1.65
2019-03-03T17:41:05.723Z,1.87
2019-03-03T17:43:36.913Z,1.90
2019-03-03T17:46:08.431Z,1.30
2019-03-03T17:48:40.067Z,2.20
2019-03-03T17:51:11.560Z,1.90
2019-03-03T17:53:43.366Z,1.57
2019-03-03T17:56:14.893Z,1.67
2019-03-03T17:58:45.946Z,1.90
2019-03-03T18:01:17.365Z,1.75
2019-03-03T18:03:49.202Z,1.30
2019-03-03T18:06:20.450Z,1.80
2019-03-03T18:08:51.630Z,1.50
2019-03-03T18:11:22.785Z,1.60
2019-03-03T18:13:53.978Z,2.00
2019-03-03T18:16:25.132Z,1.70
2019-03-03T18:18:56.331Z,1.87
2019-03-03T18:21:27.566Z,1.75
2019-03-03T18:23:59.156Z,1.60
2019-03-03T18:26:30.378Z,2.08
2019-03-03T18:29:03.684Z,1.80
2019-03-03T18:31:34.747Z,1.55
2019-03-03T18:34:06.027Z,1.60
2019-03-03T18:36:37.282Z,1.50
2019-03-03T18:39:09.958Z,1.62
2019-03-03T18:41:41.381Z,1.57
2019-03-03T18:44:12.793Z,1.52
2019-03-03T18:46:43.920Z,1.55
2019-03-03T18:49:15.293Z,1.42
2019-03-03T18:51:47.751Z,2.02
2019-03-03T18:54:18.882Z,1.95
2019-03-03T18:56:49.987Z,1.70
2019-03-03T18:59:21.198Z,2.33
2019-03-03T19:01:52.369Z,1.57
2019-03-03T19:04:23.978Z,1.57
2019-03-03T19:06:55.217Z,2.52
2019-03-03T19:09:26.527Z,1.95
2019-03-03T19:11:57.764Z,2.00
2019-03-03T19:14:29.137Z,1.70
2019-03-03T19:17:00.715Z,1.30
2019-03-03T19:19:31.842Z,1.62
2019-03-03T19:22:02.870Z,1.72
2019-03-03T19:24:34.187Z,1.85
2019-03-03T19:27:05.348Z,2.17
2019-03-03T19:29:36.383Z,1.70
2019-03-03T19:32:07.722Z,1.77
2019-03-03T19:34:38.984Z,1.72
2019-03-03T19:37:10.477Z,1.77
2019-03-03T19:39:41.951Z,2.20
2019-03-03T19:42:13.168Z,1.45
2019-03-03T19:44:44.354Z,1.55
2019-03-03T19:47:15.917Z,2.05
2019-03-03T19:49:47.172Z,1.67
2019-03-03T19:52:18.405Z,1.62
2019-03-03T19:54:49.599Z,2.55
2019-03-03T19:57:21.050Z,1.92
2019-03-03T19:59:52.243Z,1.80
2019-03-03T20:02:23.426Z,2.00
2019-03-03T20:04:54.550Z,1.98
2019-03-03T20:07:25.721Z,1.92
2019-03-03T20:09:58.440Z,2.33
2019-03-03T20:12:30.059Z,1.90
2019-03-03T20:15:01.505Z,2.05
2019-03-03T20:17:34.342Z,2.08
2019-03-03T20:20:07.139Z,1.72
2019-03-03T20:22:39.559Z,1.90
2019-03-03T20:25:11.467Z,1.92
2019-03-03T20:27:42.797Z,2.00
2019-03-03T20:30:17.346Z,1.90
2019-03-03T20:32:48.586Z,1.52
2019-03-03T20:35:19.855Z,2.25
2019-03-03T20:37:51.115Z,1.90
2019-03-03T20:40:22.628Z,1.75
2019-03-03T20:42:53.914Z,1.80
2019-03-03T20:45:25.971Z,1.80
2019-03-03T20:47:57.532Z,1.50
2019-03-03T20:50:28.797Z,1.90
2019-03-03T20:53:00.024Z,1.60
2019-03-03T20:55:31.324Z,1.60
2019-03-03T20:58:13.906Z,1.37
2019-03-03T21:00:35.539Z,1.62
2019-03-03T21:03:06.783Z,1.92
2019-03-03T21:05:37.978Z,1.82
2019-03-03T21:08:09.219Z,1.77
2019-03-03T21:10:40.766Z,1.62
2019-03-03T21:13:12.010Z,1.85
2019-03-03T21:15:43.612Z,1.90
2019-03-03T21:18:14.774Z,1.75
2019-03-03T21:20:46.076Z,1.95
2019-03-03T21:23:17.254Z,2.12
2019-03-03T21:25:48.426Z,2.02
2019-03-03T21:28:19.438Z,1.70
2019-03-03T21:30:50.542Z,1.98
2019-03-03T21:33:22.088Z,2.47
2019-03-03T21:35:53.474Z,2.00
2019-03-03T21:38:24.943Z,1.35
2019-03-03T21:40:56.058Z,2.17
2019-03-03T21:43:27.141Z,1.85
2019-03-03T21:45:58.835Z,1.80
2019-03-03T21:48:30.113Z,1.75
2019-03-03T21:51:01.222Z,2.05
2019-03-03T21:53:32.959Z,1.67
2019-03-03T21:56:04.163Z,1.90
2019-03-03T21:58:35.242Z,1.50
2019-03-03T22:01:07.786Z,2.08
2019-03-03T22:03:39.197Z,1.27
2019-03-03T22:06:10.694Z,1.40
2019-03-03T22:08:41.858Z,1.75
2019-03-03T22:11:13.020Z,3.62
2019-03-03T22:13:44.275Z,1.35
2019-03-03T22:16:15.435Z,2.05
2019-03-03T22:18:46.576Z,1.77
2019-03-03T22:21:17.771Z,1.32
2019-03-03T22:23:48.864Z,1.70
2019-03-03T22:26:20.167Z,1.77
2019-03-03T22:28:51.336Z,1.75
2019-03-03T22:31:22.579Z,1.92
2019-03-03T22:33:53.685Z,1.70
2019-03-03T22:36:25.054Z,1.57
2019-03-03T22:38:56.164Z,2.17
2019-03-03T22:41:27.261Z,1.98
2019-03-03T22:43:58.352Z,1.62
2019-03-03T22:46:29.605Z,1.50
2019-03-03T22:49:00.769Z,1.62
2019-03-03T22:51:32.131Z,1.60
2019-03-03T22:54:03.151Z,1.92
2019-03-03T22:56:34.244Z,1.30
2019-03-03T22:59:05.486Z,2.00
2019-03-03T23:01:41.403Z,1.52
2019-03-03T23:04:53.794Z,1.47
2019-03-03T23:08:04.086Z,1.77
2019-03-03T23:11:37.367Z,1.62
2019-03-03T23:14:29.874Z,2.08
2019-03-03T23:17:35.539Z,1.70
2019-03-03T23:20:46.476Z,2.17
2019-03-03T23:24:11.191Z,1.80
2019-03-03T23:26:43.301Z,1.62
2019-03-03T23:29:14.312Z,2.27
2019-03-03T23:31:45.915Z,1.82
2019-03-03T23:34:17.365Z,1.80
2019-03-03T23:36:48.673Z,2.70
2019-03-03T23:39:20.087Z,1.70
2019-03-03T23:41:51.151Z,2.27
2019-03-03T23:44:22.238Z,2.10
2019-03-03T23:46:53.325Z,2.37
2019-03-03T23:49:24.332Z,2.42
2019-03-03T23:51:55.440Z,2.00
2019-03-03T23:54:26.447Z,2.20
2019-03-03T23:56:57.475Z,1.82
2019-03-03T23:59:28.479Z,1.77
